createdAt,value
2022-10-07T00:02:16.884Z,12.60
2022-10-07T00:04:46.335Z,12.60
2022-10-07T00:07:14.137Z,12.60
2022-10-07T00:09:41.039Z,12.60
2022-10-07T00:12:07.748Z,12.60
2022-10-07T00:14:34.537Z,12.60
2022-10-07T00:17:01.327Z,12.60
2022-10-07T00:19:28.142Z,12.60
2022-10-07T00:21:54.889Z,12.60
2022-10-07T00:24:21.681Z,12.70
2022-10-07T00:26:48.890Z,12.70
2022-10-07T00:29:15.698Z,12.70
2022-10-07T00:31:42.452Z,12.70
2022-10-07T00:34:11.127Z,12.70
2022-10-07T00:36:39.031Z,12.70
2022-10-07T00:39:07.670Z,12.70
2022-10-07T00:41:42.574Z,12.70
2022-10-07T00:44:42.433Z,12.70
2022-10-07T00:47:15.134Z,12.60
2022-10-07T00:49:45.931Z,12.60
2022-10-07T00:52:13.439Z,12.60
2022-10-07T00:54:40.689Z,12.60
2022-10-07T00:57:07.453Z,12.60
2022-10-07T00:59:34.321Z,12.60
2022-10-07T01:02:01.138Z,12.60
2022-10-07T01:04:29.099Z,12.60
2022-10-07T01:06:57.005Z,12.60
2022-10-07T01:09:24.409Z,12.50
2022-10-07T01:12:13.062Z,12.50
2022-10-07T01:14:46.999Z,12.50
2022-10-07T01:17:47.062Z,12.50
2022-10-07T01:20:14.629Z,12.40
2022-10-07T01:22:54.832Z,12.50
2022-10-07T01:25:43.295Z,12.40
2022-10-07T01:28:31.241Z,12.40
2022-10-07T01:31:00.370Z,12.40
2022-10-07T01:33:29.103Z,12.40
2022-10-07T01:36:04.478Z,12.40
2022-10-07T01:38:31.206Z,12.40
2022-10-07T01:41:04.341Z,12.30
2022-10-07T01:43:31.170Z,12.30
2022-10-07T01:45:57.990Z,12.30
2022-10-07T01:48:24.888Z,12.30
2022-10-07T01:50:51.673Z,12.30
2022-10-07T01:53:31.586Z,12.30
2022-10-07T01:56:12.830Z,12.30
2022-10-07T01:59:06.714Z,12.30
2022-10-07T02:01:59.207Z,12.30
2022-10-07T02:04:41.071Z,12.30
2022-10-07T02:07:13.834Z,12.30
2022-10-07T02:09:50.324Z,12.30
2022-10-07T02:12:32.712Z,12.30
2022-10-07T02:15:03.990Z,12.30
2022-10-07T02:17:33.339Z,12.30
2022-10-07T02:20:00.015Z,12.30
2022-10-07T02:22:27.723Z,12.30
2022-10-07T02:24:55.465Z,12.40
2022-10-07T02:27:24.838Z,12.40
2022-10-07T02:29:53.245Z,12.40
2022-10-07T02:32:21.247Z,12.40
2022-10-07T02:34:52.139Z,12.40
2022-10-07T02:37:20.747Z,12.40
2022-10-07T02:39:47.468Z,12.40
2022-10-07T02:42:26.791Z,12.50
2022-10-07T02:45:13.604Z,12.50
2022-10-07T02:47:47.229Z,12.40
2022-10-07T02:50:16.875Z,12.40
2022-10-07T02:52:43.755Z,12.40
2022-10-07T02:55:12.405Z,12.40
2022-10-07T02:57:41.256Z,12.40
2022-10-07T03:00:11.104Z,12.40
2022-10-07T03:02:42.709Z,12.40
2022-10-07T03:05:09.648Z,12.40
2022-10-07T03:07:37.030Z,12.40
2022-10-07T03:10:04.281Z,12.40
2022-10-07T03:12:31.062Z,12.40
2022-10-07T03:14:58.306Z,12.40
2022-10-07T03:17:24.993Z,12.40
2022-10-07T03:19:54.740Z,12.40
2022-10-07T03:22:21.705Z,12.40
2022-10-07T03:24:48.364Z,12.40
2022-10-07T03:27:15.035Z,12.40
2022-10-07T03:29:41.703Z,12.40
2022-10-07T03:32:08.463Z,12.40
2022-10-07T03:34:35.175Z,12.40
2022-10-07T03:37:02.251Z,12.40
2022-10-07T03:39:28.973Z,12.40
2022-10-07T03:41:57.103Z,12.40
2022-10-07T03:44:24.030Z,12.40
2022-10-07T03:46:51.122Z,12.40
2022-10-07T03:49:18.899Z,12.40
2022-10-07T03:51:45.619Z,12.40
2022-10-07T03:54:12.333Z,12.40
2022-10-07T03:56:39.045Z,12.30
2022-10-07T03:59:05.740Z,12.30
2022-10-07T04:01:32.742Z,12.40
2022-10-07T04:04:01.129Z,12.40
2022-10-07T04:06:29.090Z,12.50
2022-10-07T04:08:55.875Z,12.50
2022-10-07T04:11:24.258Z,12.60
2022-10-07T04:13:51.475Z,12.60
2022-10-07T04:16:18.456Z,12.60
2022-10-07T04:18:45.384Z,12.70
2022-10-07T04:21:12.107Z,12.70
2022-10-07T04:23:40.174Z,12.80
2022-10-07T04:26:09.237Z,12.80
2022-10-07T04:28:36.677Z,12.90
2022-10-07T04:31:05.054Z,12.90
2022-10-07T04:33:31.839Z,13.00
2022-10-07T04:36:06.798Z,13.00
2022-10-07T04:38:33.602Z,13.00
2022-10-07T04:41:03.651Z,13.10
2022-10-07T04:43:34.028Z,13.10
2022-10-07T04:46:05.786Z,13.10
2022-10-07T04:48:32.614Z,13.20
2022-10-07T04:51:07.813Z,13.20
2022-10-07T04:53:35.385Z,13.20
2022-10-07T04:56:02.362Z,13.30
2022-10-07T04:58:29.277Z,13.30
2022-10-07T05:00:56.740Z,13.30
2022-10-07T05:03:24.919Z,13.40
2022-10-07T05:05:53.483Z,13.40
2022-10-07T05:08:21.479Z,13.40
2022-10-07T05:10:48.710Z,13.40
2022-10-07T05:13:16.869Z,13.50
2022-10-07T05:15:59.602Z,13.50
2022-10-07T05:18:27.336Z,13.50
2022-10-07T05:20:57.491Z,13.50
2022-10-07T05:23:28.346Z,13.50
2022-10-07T05:26:05.116Z,13.50
2022-10-07T05:28:35.079Z,13.50
2022-10-07T05:31:09.900Z,13.40
2022-10-07T05:33:36.876Z,13.40
2022-10-07T05:36:04.754Z,13.40
2022-10-07T05:38:31.449Z,13.40
2022-10-07T05:41:02.749Z,13.40
2022-10-07T05:43:30.373Z,13.40
2022-10-07T05:46:04.359Z,13.40
2022-10-07T05:48:37.992Z,13.40
2022-10-07T05:51:07.139Z,13.50
2022-10-07T05:53:34.807Z,13.50
2022-10-07T05:56:08.772Z,13.50
2022-10-07T05:58:41.626Z,13.50
2022-10-07T06:01:14.180Z,13.50
2022-10-07T06:03:42.255Z,13.60
2022-10-07T06:06:09.043Z,13.60
2022-10-07T06:08:36.140Z,13.70
2022-10-07T06:11:22.408Z,13.70
2022-10-07T06:13:50.111Z,13.80
2022-10-07T06:16:16.829Z,13.80
2022-10-07T06:18:44.151Z,13.90
2022-10-07T06:21:12.585Z,13.90
2022-10-07T06:23:39.289Z,13.90
2022-10-07T06:26:07.263Z,13.90
2022-10-07T06:28:38.281Z,13.90
2022-10-07T06:31:09.733Z,14.00
2022-10-07T06:33:36.574Z,14.00
2022-10-07T06:36:12.881Z,14.00
2022-10-07T06:38:44.612Z,14.10
2022-10-07T06:41:11.740Z,14.10
2022-10-07T06:43:38.446Z,14.20
2022-10-07T06:46:06.025Z,14.20
2022-10-07T06:48:34.321Z,14.20
2022-10-07T06:51:04.219Z,14.20
2022-10-07T06:53:31.408Z,14.20
2022-10-07T06:56:04.519Z,14.20
2022-10-07T06:58:31.130Z,14.20
2022-10-07T07:00:59.721Z,14.20
2022-10-07T07:03:27.000Z,14.10
2022-10-07T07:05:55.140Z,14.00
2022-10-07T07:08:29.291Z,14.10
2022-10-07T07:10:56.231Z,14.00
2022-10-07T07:13:23.029Z,14.00
2022-10-07T07:15:59.255Z,14.00
2022-10-07T07:18:26.164Z,14.10
2022-10-07T07:20:52.873Z,14.20
2022-10-07T07:23:19.562Z,14.20
2022-10-07T07:25:46.467Z,14.20
2022-10-07T07:28:14.901Z,14.30
2022-10-07T07:30:42.027Z,14.30
2022-10-07T07:33:08.915Z,14.30
2022-10-07T07:35:38.106Z,14.30
2022-10-07T07:38:04.879Z,14.30
2022-10-07T07:40:31.646Z,14.30
2022-10-07T07:42:58.795Z,14.40
2022-10-07T07:45:25.564Z,14.40
2022-10-07T07:47:52.947Z,14.50
2022-10-07T07:50:22.224Z,14.50
2022-10-07T07:52:51.898Z,14.50
2022-10-07T07:55:22.235Z,14.50
2022-10-07T07:57:49.321Z,14.50
2022-10-07T08:00:18.995Z,14.60
2022-10-07T08:02:46.589Z,14.60
2022-10-07T08:05:13.455Z,14.70
2022-10-07T08:07:40.790Z,14.70
2022-10-07T08:10:07.881Z,14.80
2022-10-07T08:12:34.728Z,14.80
2022-10-07T08:15:01.460Z,14.90
2022-10-07T08:17:28.109Z,14.90
2022-10-07T08:19:56.157Z,14.90
2022-10-07T08:22:23.100Z,15.00
2022-10-07T08:24:49.832Z,15.00
2022-10-07T08:27:16.496Z,15.00
2022-10-07T08:29:43.332Z,15.10
2022-10-07T08:32:10.172Z,15.20
2022-10-07T08:34:37.090Z,15.20
2022-10-07T08:37:03.774Z,15.20
2022-10-07T08:39:31.321Z,15.30
2022-10-07T08:42:08.566Z,15.40
2022-10-07T08:44:40.969Z,15.50
2022-10-07T08:47:14.588Z,15.60
2022-10-07T08:50:04.562Z,15.60
2022-10-07T08:52:54.046Z,15.60
2022-10-07T08:55:26.995Z,15.70
2022-10-07T08:58:19.699Z,15.70
2022-10-07T09:00:58.512Z,15.70
2022-10-07T09:03:44.079Z,15.80
2022-10-07T09:06:28.238Z,15.90
2022-10-07T09:09:11.609Z,16.00
2022-10-07T09:11:38.474Z,16.00
2022-10-07T09:14:12.681Z,16.10
2022-10-07T09:16:43.196Z,16.10
2022-10-07T09:19:24.790Z,16.10
2022-10-07T09:21:51.558Z,16.20
2022-10-07T09:24:26.407Z,16.10
2022-10-07T09:26:55.238Z,16.20
2022-10-07T09:29:26.803Z,16.20
2022-10-07T09:31:53.873Z,16.20
2022-10-07T09:34:25.646Z,16.20
2022-10-07T09:37:13.464Z,16.20
2022-10-07T09:39:40.484Z,16.20
2022-10-07T09:42:08.730Z,16.30
2022-10-07T09:44:35.454Z,16.30
2022-10-07T09:47:25.421Z,16.40
2022-10-07T09:49:54.943Z,16.40
2022-10-07T09:52:23.435Z,16.30
2022-10-07T09:54:54.371Z,16.40
2022-10-07T09:57:32.221Z,16.40
2022-10-07T10:00:17.599Z,16.50
2022-10-07T10:02:49.385Z,16.50
2022-10-07T10:05:34.194Z,16.50
2022-10-07T10:08:06.976Z,16.50
2022-10-07T10:10:34.513Z,16.60
2022-10-07T10:13:02.691Z,16.60
2022-10-07T10:15:42.646Z,16.70
2022-10-07T10:18:26.632Z,16.80
2022-10-07T10:20:53.370Z,16.90
2022-10-07T10:23:35.960Z,17.00
2022-10-07T10:26:33.968Z,17.10
2022-10-07T10:29:22.530Z,17.20
2022-10-07T10:31:58.169Z,17.30
2022-10-07T10:34:47.349Z,17.50
2022-10-07T10:37:21.651Z,17.60
2022-10-07T10:40:00.777Z,17.90
2022-10-07T10:42:52.038Z,18.10
2022-10-07T10:45:25.057Z,18.20
2022-10-07T10:47:59.153Z,18.40
2022-10-07T10:50:28.907Z,18.60
2022-10-07T10:53:43.423Z,18.70
2022-10-07T10:56:35.706Z,18.80
2022-10-07T10:59:23.716Z,18.90
2022-10-07T11:02:22.265Z,19.00
2022-10-07T11:04:52.176Z,19.10
2022-10-07T11:07:47.900Z,19.20
2022-10-07T11:10:30.118Z,19.20
2022-10-07T11:12:58.932Z,19.30
2022-10-07T11:15:27.028Z,19.20
2022-10-07T11:17:54.509Z,19.30
2022-10-07T11:20:37.321Z,19.40
2022-10-07T11:23:25.416Z,19.60
2022-10-07T11:26:02.493Z,19.70
2022-10-07T11:28:30.996Z,19.90
2022-10-07T11:31:11.214Z,20.20
2022-10-07T11:34:05.093Z,20.40
2022-10-07T11:36:34.404Z,20.20
2022-10-07T11:39:01.545Z,20.10
2022-10-07T11:41:36.251Z,19.90
2022-10-07T11:44:06.216Z,19.70
2022-10-07T11:46:33.750Z,19.80
2022-10-07T11:49:24.183Z,19.90
2022-10-07T11:52:06.201Z,20.30
2022-10-07T11:54:41.099Z,20.80
2022-10-07T11:57:17.559Z,21.00
2022-10-07T12:00:05.987Z,21.10
2022-10-07T12:02:39.956Z,21.00
2022-10-07T12:05:08.490Z,21.10
2022-10-07T12:07:37.105Z,21.20
2022-10-07T12:10:03.891Z,21.20
2022-10-07T12:12:43.215Z,21.10
2022-10-07T12:15:29.184Z,21.10
2022-10-07T12:17:55.968Z,21.20
2022-10-07T12:20:34.885Z,21.20
2022-10-07T12:23:20.251Z,21.20
2022-10-07T12:26:12.872Z,21.20
2022-10-07T12:28:40.667Z,21.00
2022-10-07T12:31:16.145Z,20.70
2022-10-07T12:33:45.887Z,20.30
2022-10-07T12:36:18.646Z,20.10
2022-10-07T12:38:46.235Z,19.90
2022-10-07T12:41:19.606Z,19.90
2022-10-07T12:44:06.286Z,20.30
2022-10-07T12:46:49.086Z,20.50
2022-10-07T12:49:45.062Z,20.50
2022-10-07T12:52:17.134Z,20.40
2022-10-07T12:54:58.292Z,20.10
2022-10-07T12:57:28.872Z,20.00
2022-10-07T13:00:17.580Z,19.80
2022-10-07T13:03:13.788Z,19.90
2022-10-07T13:05:51.587Z,20.10
2022-10-07T13:08:44.343Z,19.90
2022-10-07T13:11:31.558Z,20.60
2022-10-07T13:14:04.973Z,21.20
2022-10-07T13:16:53.204Z,21.90
2022-10-07T13:19:34.722Z,22.40
2022-10-07T13:22:04.518Z,22.60
2022-10-07T13:24:31.162Z,22.70
2022-10-07T13:26:57.881Z,23.00
2022-10-07T13:29:26.800Z,22.90
2022-10-07T13:32:04.432Z,22.70
2022-10-07T13:34:31.443Z,22.80
2022-10-07T13:36:58.190Z,22.60
2022-10-07T13:39:25.726Z,23.00
2022-10-07T13:41:57.428Z,23.10
2022-10-07T13:44:28.519Z,23.10
2022-10-07T13:47:02.424Z,23.00
2022-10-07T13:49:49.989Z,22.40
2022-10-07T13:52:37.157Z,21.80
2022-10-07T13:55:19.525Z,21.30
2022-10-07T13:57:46.214Z,21.60
2022-10-07T14:00:13.394Z,22.10
2022-10-07T14:02:40.703Z,22.10
2022-10-07T14:05:29.304Z,21.70
2022-10-07T14:08:00.304Z,22.00
2022-10-07T14:10:28.522Z,22.60
2022-10-07T14:13:03.399Z,22.90
2022-10-07T14:15:31.175Z,23.10
2022-10-07T14:18:00.408Z,23.20
2022-10-07T14:20:31.303Z,23.40
2022-10-07T14:22:59.551Z,23.50
2022-10-07T14:25:28.754Z,23.20
2022-10-07T14:27:59.027Z,23.00
2022-10-07T14:30:27.125Z,23.00
2022-10-07T14:33:17.398Z,22.70
2022-10-07T14:35:44.526Z,22.30
2022-10-07T14:38:27.812Z,21.50
2022-10-07T14:40:54.476Z,21.50
2022-10-07T14:43:21.152Z,22.00
2022-10-07T14:45:48.250Z,22.00
2022-10-07T14:48:14.970Z,22.40
2022-10-07T14:50:41.834Z,22.80
2022-10-07T14:53:11.681Z,23.00
2022-10-07T14:55:38.495Z,23.40
2022-10-07T14:58:05.655Z,23.70
2022-10-07T15:00:38.725Z,23.20
2022-10-07T15:03:06.452Z,22.70
2022-10-07T15:05:33.800Z,22.20
2022-10-07T15:08:01.106Z,21.50
2022-10-07T15:10:27.874Z,21.00
2022-10-07T15:12:55.903Z,20.50
2022-10-07T15:15:22.600Z,20.20
2022-10-07T15:17:49.436Z,20.00
2022-10-07T15:20:16.581Z,19.80
2022-10-07T15:22:43.722Z,19.60
2022-10-07T15:25:11.231Z,19.50
2022-10-07T15:27:38.057Z,19.40
2022-10-07T15:30:07.245Z,19.30
2022-10-07T15:32:34.121Z,19.30
2022-10-07T15:35:00.787Z,19.20
2022-10-07T15:37:27.569Z,19.20
2022-10-07T15:39:54.741Z,19.20
2022-10-07T15:42:24.641Z,20.00
2022-10-07T15:44:51.571Z,20.60
2022-10-07T15:47:20.757Z,21.30
2022-10-07T15:49:47.485Z,21.80
2022-10-07T15:52:14.957Z,22.00
2022-10-07T15:54:41.744Z,22.20
2022-10-07T15:57:08.559Z,22.60
2022-10-07T15:59:35.744Z,22.60
2022-10-07T16:02:03.718Z,22.50
2022-10-07T16:04:30.525Z,22.60
2022-10-07T16:06:57.266Z,22.70
2022-10-07T16:09:23.995Z,22.60
2022-10-07T16:11:50.665Z,22.10
2022-10-07T16:14:17.775Z,21.80
2022-10-07T16:16:44.793Z,21.30
2022-10-07T16:19:11.712Z,20.60
2022-10-07T16:21:39.877Z,20.10
2022-10-07T16:24:15.371Z,19.80
2022-10-07T16:26:42.889Z,19.60
2022-10-07T16:29:33.629Z,19.40
2022-10-07T16:32:00.568Z,19.10
2022-10-07T16:34:28.347Z,18.70
2022-10-07T16:36:56.397Z,18.50
2022-10-07T16:39:23.402Z,18.40
2022-10-07T16:41:51.792Z,18.20
2022-10-07T16:44:19.360Z,18.00
2022-10-07T16:46:46.308Z,17.90
2022-10-07T16:49:15.232Z,17.80
2022-10-07T16:51:42.032Z,17.60
2022-10-07T16:54:13.527Z,17.50
2022-10-07T16:56:41.538Z,17.50
2022-10-07T16:59:09.777Z,17.40
2022-10-07T17:01:39.197Z,17.40
2022-10-07T17:04:07.179Z,17.30
2022-10-07T17:06:34.070Z,17.20
2022-10-07T17:09:04.597Z,17.20
2022-10-07T17:11:35.276Z,17.20
2022-10-07T17:14:07.019Z,17.10
2022-10-07T17:16:36.581Z,17.10
2022-10-07T17:19:04.290Z,17.00
2022-10-07T17:21:31.100Z,17.00
2022-10-07T17:23:58.198Z,17.00
2022-10-07T17:26:26.843Z,17.00
2022-10-07T17:29:01.329Z,16.90
2022-10-07T17:31:28.393Z,16.90
2022-10-07T17:33:55.342Z,16.80
2022-10-07T17:36:23.462Z,16.80
2022-10-07T17:38:50.218Z,16.80
2022-10-07T17:41:26.620Z,16.80
2022-10-07T17:43:57.526Z,16.80
2022-10-07T17:46:25.977Z,16.70
2022-10-07T17:48:55.035Z,16.60
2022-10-07T17:51:22.444Z,16.60
2022-10-07T17:53:52.645Z,16.50
2022-10-07T17:56:19.433Z,16.50
2022-10-07T17:58:47.514Z,16.50
2022-10-07T18:01:20.823Z,16.50
2022-10-07T18:03:51.730Z,16.50
2022-10-07T18:06:18.436Z,16.40
2022-10-07T18:08:45.310Z,16.40
2022-10-07T18:11:12.217Z,16.40
2022-10-07T18:13:57.575Z,16.40
2022-10-07T18:16:24.620Z,16.40
2022-10-07T18:18:55.203Z,16.30
2022-10-07T18:21:22.656Z,15.90
2022-10-07T18:23:50.792Z,15.10
2022-10-07T18:26:18.204Z,14.50
2022-10-07T18:28:46.332Z,14.30
2022-10-07T18:31:14.001Z,14.10
2022-10-07T18:33:40.792Z,14.10
2022-10-07T18:36:08.661Z,14.00
2022-10-07T18:38:37.660Z,13.90
2022-10-07T18:41:06.089Z,13.80
2022-10-07T18:43:33.441Z,13.80
2022-10-07T18:46:01.625Z,13.80
2022-10-07T18:48:32.614Z,13.70
2022-10-07T18:50:59.940Z,13.70
2022-10-07T18:53:27.318Z,13.70
2022-10-07T18:55:54.587Z,13.70
2022-10-07T18:58:21.415Z,13.70
2022-10-07T19:00:48.321Z,13.60
2022-10-07T19:03:15.067Z,13.60
2022-10-07T19:05:42.046Z,13.60
2022-10-07T19:08:08.699Z,13.60
2022-10-07T19:10:41.866Z,13.60
2022-10-07T19:13:35.376Z,13.60
2022-10-07T19:16:07.130Z,13.50
2022-10-07T19:18:33.909Z,13.50
2022-10-07T19:21:00.756Z,13.50
2022-10-07T19:23:27.768Z,13.50
2022-10-07T19:25:58.437Z,13.50
2022-10-07T19:28:25.788Z,13.40
2022-10-07T19:30:53.006Z,13.40
2022-10-07T19:33:19.814Z,13.40
2022-10-07T19:35:47.655Z,13.40
2022-10-07T19:38:14.305Z,13.40
2022-10-07T19:40:41.533Z,13.40
2022-10-07T19:43:10.204Z,13.40
2022-10-07T19:45:40.961Z,13.40
2022-10-07T19:48:13.803Z,13.40
2022-10-07T19:50:41.323Z,13.30
2022-10-07T19:53:08.587Z,13.30
2022-10-07T19:55:35.359Z,13.30
2022-10-07T19:58:02.314Z,13.20
2022-10-07T20:00:30.516Z,13.20
2022-10-07T20:02:57.782Z,13.20
2022-10-07T20:05:26.162Z,13.20
2022-10-07T20:07:52.955Z,13.10
2022-10-07T20:10:19.737Z,13.10
2022-10-07T20:12:46.833Z,13.10
2022-10-07T20:15:14.114Z,13.10
2022-10-07T20:17:41.574Z,13.00
2022-10-07T20:20:13.133Z,13.00
2022-10-07T20:22:39.955Z,13.00
2022-10-07T20:25:07.326Z,13.00
2022-10-07T20:27:34.055Z,13.00
2022-10-07T20:30:06.519Z,13.00
2022-10-07T20:32:34.252Z,12.90
2022-10-07T20:35:01.601Z,12.90
2022-10-07T20:37:28.392Z,12.90
2022-10-07T20:40:13.569Z,12.90
2022-10-07T20:42:44.628Z,12.90
2022-10-07T20:45:13.956Z,12.80
2022-10-07T20:47:40.834Z,12.80
2022-10-07T20:50:08.482Z,12.80
2022-10-07T20:52:36.043Z,12.80
2022-10-07T20:55:03.119Z,12.80
2022-10-07T20:57:35.950Z,12.80
2022-10-07T21:00:02.754Z,12.70
2022-10-07T21:02:29.794Z,12.70
2022-10-07T21:04:56.604Z,12.70
2022-10-07T21:07:23.514Z,12.70
2022-10-07T21:09:50.248Z,12.70
2022-10-07T21:12:18.029Z,12.70
2022-10-07T21:14:47.849Z,12.70
2022-10-07T21:17:14.758Z,12.70
2022-10-07T21:19:41.812Z,12.70
2022-10-07T21:22:08.828Z,12.70
2022-10-07T21:24:35.737Z,12.80
2022-10-07T21:27:03.570Z,12.80
2022-10-07T21:29:31.279Z,12.80
2022-10-07T21:31:58.524Z,12.70
2022-10-07T21:34:25.171Z,12.70
2022-10-07T21:36:53.980Z,12.70
2022-10-07T21:39:21.493Z,12.70
2022-10-07T21:41:49.143Z,12.70
2022-10-07T21:44:15.939Z,12.60
2022-10-07T21:46:45.553Z,12.60
2022-10-07T21:49:13.745Z,12.60
2022-10-07T21:51:40.727Z,12.50
2022-10-07T21:54:07.757Z,12.50
2022-10-07T21:56:34.895Z,12.50
2022-10-07T21:59:03.683Z,12.40
2022-10-07T22:01:31.876Z,12.40
2022-10-07T22:04:02.104Z,12.40
2022-10-07T22:06:48.437Z,12.40
2022-10-07T22:09:15.629Z,12.40
2022-10-07T22:11:42.522Z,12.30
2022-10-07T22:14:12.828Z,12.30
2022-10-07T22:16:40.091Z,12.30
2022-10-07T22:19:06.842Z,12.30
2022-10-07T22:21:35.878Z,12.20
2022-10-07T22:24:04.233Z,12.20
2022-10-07T22:26:38.032Z,12.20
2022-10-07T22:29:06.090Z,12.20
2022-10-07T22:31:32.837Z,12.20
2022-10-07T22:34:00.042Z,12.10
2022-10-07T22:36:27.885Z,12.10
2022-10-07T22:38:55.600Z,12.10
2022-10-07T22:41:23.101Z,12.10
2022-10-07T22:43:49.779Z,12.00
2022-10-07T22:46:18.231Z,12.00
2022-10-07T22:48:48.620Z,12.00
2022-10-07T22:51:16.249Z,11.90
2022-10-07T22:53:44.689Z,11.90
2022-10-07T22:56:13.256Z,11.90
2022-10-07T22:58:40.705Z,11.80
2022-10-07T23:01:12.028Z,11.80
2022-10-07T23:03:40.116Z,11.80
2022-10-07T23:06:07.355Z,11.80
2022-10-07T23:08:36.275Z,11.80
2022-10-07T23:11:03.442Z,11.70
2022-10-07T23:13:32.355Z,11.70
2022-10-07T23:16:00.165Z,11.70
2022-10-07T23:18:27.372Z,11.60
2022-10-07T23:21:14.147Z,11.60
2022-10-07T23:23:42.381Z,11.60
2022-10-07T23:26:11.247Z,11.60
2022-10-07T23:28:38.227Z,11.50
2022-10-07T23:31:09.712Z,11.50
2022-10-07T23:33:36.950Z,11.50
2022-10-07T23:36:05.727Z,11.50
2022-10-07T23:38:33.368Z,11.50
2022-10-07T23:41:00.843Z,11.40
2022-10-07T23:43:27.768Z,11.40
2022-10-07T23:45:54.531Z,11.40
2022-10-07T23:48:21.311Z,11.30
2022-10-07T23:50:51.874Z,11.30
2022-10-07T23:53:19.495Z,11.30
2022-10-07T23:55:50.829Z,11.30
2022-10-07T23:58:19.277Z,11.30
